Time;durP1;ratioP1;P1;durP2;ratioP2;P2;SDS_P1;SDS_P2;PMS_P1;PMS_P2;Temp;Humidity;BMP_temperature;BMP_pressure;BME280_temperature;BME280_humidity;BME280_pressure;Samples;Min_cycle;Max_cycle;Signal;HPM_P1;HPM_P2
2022/06/26 00:00:21;;;;;;;14.07;13.50;;;;;;;-141.02;100.00;84659.09;5114129;28;20231;-76
2022/06/26 00:02:48;;;;;;;13.90;13.30;;;;;;;-141.02;100.00;84690.19;5113736;28;20280;-76
2022/06/26 00:05:15;;;;;;;12.98;12.48;;;;;;;-141.02;100.00;84696.03;5113945;28;20295;-76
2022/06/26 00:07:42;;;;;;;13.07;12.57;;;;;;;-141.02;100.00;84690.19;5113666;28;20235;-76
2022/06/26 00:10:10;;;;;;;13.55;13.05;;;;;;;-141.02;100.00;84577.47;5113907;28;20196;-76
2022/06/26 00:12:38;;;;;;;13.00;12.50;;;;;;;-141.02;100.00;84721.28;5113790;28;20228;-76
2022/06/26 00:15:07;;;;;;;12.73;12.23;;;;;;;-141.02;100.00;84767.94;5113512;28;20189;-76
2022/06/26 00:17:34;;;;;;;12.40;12.00;;;;;;;-141.02;100.00;84814.56;5113540;27;20197;-76
2022/06/26 00:20:01;;;;;;;12.30;11.90;;;;;;;-141.02;100.00;84876.78;5113429;28;20199;-76
2022/06/26 00:22:28;;;;;;;12.18;11.77;;;;;;;-141.02;100.00;84942.84;5113353;28;20247;-75
2022/06/26 00:24:55;;;;;;;11.90;11.50;;;;;;;-141.02;100.00;84981.72;5114749;28;20274;-75
2022/06/26 00:27:22;;;;;;;11.60;11.20;;;;;;;-141.02;100.00;85005.03;5113613;28;20251;-76
2022/06/26 00:29:50;;;;;;;10.73;10.32;;;;;;;-141.02;100.00;85010.88;5113251;28;20195;-76
2022/06/26 00:32:17;;;;;;;11.13;10.73;;;;;;;-141.02;100.00;85028.38;5113120;28;20663;-76
2022/06/26 00:34:44;;;;;;;11.32;10.93;;;;;;;-141.02;100.00;85012.81;5113167;28;20193;-76
2022/06/26 00:37:11;;;;;;;11.48;11.07;;;;;;;-141.02;100.00;85053.63;5113001;28;20227;-76
2022/06/26 00:39:38;;;;;;;11.77;11.38;;;;;;;-141.02;100.00;85016.72;5113019;28;20193;-76
2022/06/26 00:42:06;;;;;;;11.93;11.52;;;;;;;-141.02;100.00;85028.38;5113066;27;20235;-76
2022/06/26 00:44:33;;;;;;;11.88;11.48;;;;;;;-141.02;100.00;85007.00;5113292;28;20246;-76
2022/06/26 00:47:01;;;;;;;12.10;11.70;;;;;;;-141.02;100.00;85022.53;5112926;28;20197;-75
2022/06/26 00:49:28;;;;;;;11.90;11.50;;;;;;;-141.02;100.00;85020.59;5112925;28;20220;-75
2022/06/26 00:51:57;;;;;;;13.15;12.65;;;;;;;-141.02;100.00;85028.38;5112809;28;20189;-76
2022/06/26 00:54:26;;;;;;;12.80;12.30;;;;;;;-141.02;100.00;85038.09;5112774;28;20316;-75
2022/06/26 00:56:58;;;;;;;12.20;11.80;;;;;;;-141.02;100.00;85041.97;5112599;28;20233;-76
2022/06/26 00:59:25;;;;;;;12.18;11.77;;;;;;;-141.02;100.00;85055.59;5113140;28;20648;-76
2022/06/26 01:01:53;;;;;;;12.23;11.82;;;;;;;-141.02;100.00;85061.41;5112707;28;20197;-76
2022/06/26 01:04:21;;;;;;;12.43;12.02;;;;;;;-141.02;100.00;85094.47;5113274;28;20193;-76
2022/06/26 01:06:49;;;;;;;12.68;12.18;;;;;;;-141.02;100.00;85096.41;5112778;28;20288;-76
2022/06/26 01:09:17;;;;;;;12.20;11.80;;;;;;;-141.02;100.00;85106.13;5112935;28;20246;-76
2022/06/26 01:11:44;;;;;;;11.60;11.20;;;;;;;-141.02;100.00;85160.53;5113216;28;20193;-76
2022/06/26 01:14:12;;;;;;;12.40;12.00;;;;;;;-141.02;100.00;85195.53;5112425;28;20225;-75
2022/06/26 01:16:41;;;;;;;12.20;11.80;;;;;;;-141.02;100.00;85214.97;5112809;28;20277;-76
2022/06/26 01:19:09;;;;;;;12.10;11.70;;;;;;;-141.02;100.00;85234.41;5112467;28;20637;-76
2022/06/26 01:21:38;;;;;;;12.20;11.80;;;;;;;-141.02;100.00;85304.38;5112809;28;20197;-75
2022/06/26 01:24:07;;;;;;;11.75;11.35;;;;;;;-141.02;100.00;85312.16;5112742;28;20220;-76
2022/06/26 01:26:35;;;;;;;11.88;11.48;;;;;;;-141.02;100.00;85335.47;5113208;28;20284;-76
2022/06/26 01:29:02;;;;;;;11.57;11.18;;;;;;;-141.02;100.00;85366.59;5112752;28;20193;-76
2022/06/26 01:31:29;;;;;;;11.63;11.23;;;;;;;-141.02;100.00;85325.75;5112579;28;20287;-76
2022/06/26 01:33:56;;;;;;;11.38;10.98;;;;;;;-141.02;100.00;85376.31;5112265;28;20224;-76
2022/06/26 01:36:23;;;;;;;10.70;10.40;;;;;;;-141.02;100.00;85440.44;5112652;28;20294;-76
2022/06/26 01:38:50;;;;;;;10.60;10.30;;;;;;;-141.02;100.00;85448.22;5112609;28;20228;-76
2022/06/26 01:41:19;;;;;;;9.80;9.50;;;;;;;-141.02;100.00;85448.22;5112267;28;20651;-77
2022/06/26 01:43:46;;;;;;;9.82;9.52;;;;;;;-141.02;100.00;85479.34;5112538;28;20651;-77
2022/06/26 01:46:13;;;;;;;10.10;9.80;;;;;;;-141.02;100.00;85487.09;5112265;28;20551;-76
2022/06/26 01:48:40;;;;;;;9.82;9.52;;;;;;;-141.02;100.00;85510.44;5113511;28;20231;-76
2022/06/26 01:51:08;;;;;;;9.68;9.38;;;;;;;-141.02;100.00;85296.59;5116314;28;20228;-77
2022/06/26 01:53:36;;;;;;;9.05;8.75;;;;;;;-141.02;100.00;85557.09;5116467;28;20311;-77
2022/06/26 01:56:04;;;;;;;9.05;8.75;;;;;;;-141.02;100.00;85557.09;5115974;28;20260;-76
2022/06/26 01:58:32;;;;;;;9.32;9.02;;;;;;;-141.02;100.00;85541.53;5116531;28;20250;-76
2022/06/26 02:01:00;;;;;;;9.30;9.00;;;;;;;-141.02;100.00;85584.31;5117282;28;20220;-75
2022/06/26 02:03:28;;;;;;;9.30;9.00;;;;;;;-141.02;100.00;85592.09;5116459;28;20281;-76
2022/06/26 02:05:55;;;;;;;9.73;9.43;;;;;;;-141.02;100.00;85630.97;5116055;28;20648;-76
2022/06/26 02:08:22;;;;;;;9.55;9.25;;;;;;;-141.02;100.00;85619.28;5116279;28;20720;-76
2022/06/26 02:13:39;;;;;;;9.68;9.38;;;;;;;-141.02;100.00;85611.53;5116248;28;20219;-76
2022/06/26 02:16:12;;;;;;;9.60;9.30;;;;;;;-141.02;100.00;85409.34;5116229;28;20599;-76
2022/06/26 02:18:40;;;;;;;9.40;9.10;;;;;;;-141.02;100.00;85595.97;5116111;28;20189;-76
2022/06/26 02:21:08;;;;;;;9.30;9.00;;;;;;;-141.02;100.00;85588.19;5115774;28;20280;-75
2022/06/26 02:23:37;;;;;;;9.20;8.90;;;;;;;-141.02;100.00;85570.69;5115730;28;20193;-77
2022/06/26 02:26:04;;;;;;;9.20;8.90;;;;;;;-141.02;100.00;85590.13;5115652;28;20285;-76
2022/06/26 02:28:31;;;;;;;9.40;9.10;;;;;;;-141.02;100.00;85553.19;5115905;28;20246;-76
2022/06/26 02:31:00;;;;;;;9.60;9.30;;;;;;;-141.02;100.00;85358.81;5115650;28;20730;-76
2022/06/26 02:33:28;;;;;;;9.43;9.13;;;;;;;-141.02;100.00;85529.88;5115731;28;20277;-75
2022/06/26 02:35:55;;;;;;;9.80;9.50;;;;;;;-141.02;100.00;85520.16;5115502;28;20199;-75
2022/06/26 02:38:22;;;;;;;9.95;9.65;;;;;;;-141.02;100.00;85508.50;5115719;27;20686;-75
2022/06/26 02:40:50;;;;;;;9.77;9.48;;;;;;;-141.02;100.00;85494.88;5115343;28;20193;-75
2022/06/26 02:43:18;;;;;;;10.50;10.20;;;;;;;-141.02;100.00;85459.91;5115652;28;20280;-75
2022/06/26 02:45:46;;;;;;;10.50;10.20;;;;;;;-141.02;100.00;85442.41;5115278;28;20250;-75
2022/06/26 02:48:14;;;;;;;11.10;10.70;;;;;;;-141.02;100.00;85424.91;5115826;28;20197;-75
2022/06/26 02:50:41;;;;;;;11.35;10.95;;;;;;;-141.02;100.00;85415.19;5115658;28;20189;-75
2022/06/26 02:53:09;;;;;;;11.35;10.95;;;;;;;-141.02;100.00;85417.13;5115379;28;20271;-75
2022/06/26 02:55:36;;;;;;;11.52;11.13;;;;;;;-141.02;100.00;85424.91;5115720;28;20620;-75
2022/06/26 02:58:04;;;;;;;11.80;11.40;;;;;;;-141.02;100.00;85409.34;5114867;28;20312;-75
2022/06/26 03:00:31;;;;;;;11.90;11.50;;;;;;;-141.02;100.00;85399.63;5113923;28;20232;-74
2022/06/26 03:02:58;;;;;;;12.30;11.80;;;;;;;-141.02;100.00;85351.03;5115538;28;20232;-75
2022/06/26 03:05:26;;;;;;;12.40;11.90;;;;;;;-141.02;100.00;85341.31;5115232;27;20247;-75
2022/06/26 03:07:53;;;;;;;12.40;11.90;;;;;;;-141.02;100.00;85318.00;5114898;28;20228;-75
2022/06/26 03:10:20;;;;;;;12.20;11.70;;;;;;;-141.02;100.00;85343.25;5114823;28;20203;-74
2022/06/26 03:12:49;;;;;;;12.50;12.00;;;;;;;-141.02;100.00;85283.00;5114948;28;20627;-75
2022/06/26 03:15:17;;;;;;;12.48;11.98;;;;;;;-141.02;100.00;85300.50;5115246;28;20208;-75
2022/06/26 03:17:44;;;;;;;11.60;11.20;;;;;;;-141.02;100.00;85242.19;5115009;28;20622;-75
2022/06/26 03:20:13;;;;;;;11.40;11.00;;;;;;;-141.02;100.00;85273.28;5114909;28;20609;-75
2022/06/26 03:22:42;;;;;;;10.80;10.40;;;;;;;-141.02;100.00;85281.06;5114592;28;20189;-75
2022/06/26 03:25:10;;;;;;;10.65;10.25;;;;;;;-141.02;100.00;85057.53;5114572;27;20232;-76
2022/06/26 03:27:37;;;;;;;10.80;10.40;;;;;;;-141.02;100.00;85265.50;5114440;28;20284;-75
2022/06/26 03:30:05;;;;;;;11.00;10.60;;;;;;;-141.02;100.00;85265.50;5114448;28;20599;-75
2022/06/26 03:32:32;;;;;;;11.27;10.88;;;;;;;-141.02;100.00;85214.97;5114667;28;20233;-75
2022/06/26 03:34:59;;;;;;;11.00;10.60;;;;;;;-141.02;100.00;85255.78;5114615;28;20278;-75
2022/06/26 03:37:26;;;;;;;11.00;10.60;;;;;;;-141.02;100.00;85273.28;5114569;28;20659;-75
2022/06/26 03:39:54;;;;;;;10.93;10.52;;;;;;;-141.02;100.00;85244.13;5114221;28;20209;-75
2022/06/26 03:42:21;;;;;;;11.50;11.10;;;;;;;-141.02;100.00;85246.06;5114155;28;20735;-75
2022/06/26 03:44:48;;;;;;;11.50;11.10;;;;;;;-141.02;100.00;85203.31;5114386;28;20193;-75
2022/06/26 03:47:15;;;;;;;11.20;10.80;;;;;;;-141.02;100.00;85211.09;5114417;28;20285;-75
2022/06/26 03:49:42;;;;;;;11.20;10.80;;;;;;;-141.02;100.00;85203.31;5114366;28;20228;-75
2022/06/26 03:52:09;;;;;;;11.10;10.70;;;;;;;-141.02;100.00;85154.72;5114379;28;20193;-75
2022/06/26 03:54:36;;;;;;;10.80;10.50;;;;;;;-141.02;100.00;85137.22;5113891;28;20225;-74
2022/06/26 03:57:05;;;;;;;10.50;10.20;;;;;;;-141.02;100.00;85049.75;5113854;28;20257;-74
2022/06/26 03:59:34;;;;;;;10.63;10.32;;;;;;;-141.02;100.00;85024.47;5113867;28;20197;-74
2022/06/26 04:02:01;;;;;;;13.80;13.30;;;;;;;-141.02;100.00;84902.03;5113766;28;20601;-74
2022/06/26 04:04:28;;;;;;;16.02;15.32;;;;;;;-141.02;100.00;84760.16;5113770;28;20193;-75
2022/06/26 04:06:55;;;;;;;16.73;16.02;;;;;;;-141.02;100.00;84717.41;5114321;28;20197;-75
2022/06/26 04:09:22;;;;;;;16.65;15.95;;;;;;;-141.02;100.00;84608.56;5113639;28;20266;-75
2022/06/26 04:11:49;;;;;;;16.98;16.27;;;;;;;-141.02;100.00;84554.16;5113487;28;20279;-75
2022/06/26 04:14:17;;;;;;;17.00;16.30;;;;;;;-141.02;100.00;84478.34;5113493;28;20707;-75
2022/06/26 04:16:44;;;;;;;16.38;15.68;;;;;;;-141.02;100.00;84497.78;5113824;28;20197;-75
2022/06/26 04:19:11;;;;;;;15.60;15.00;;;;;;;-141.02;100.00;84499.72;5113708;28;20219;-75
2022/06/26 04:21:38;;;;;;;16.30;15.60;;;;;;;-141.02;100.00;84410.34;5113423;28;20225;-75
2022/06/26 04:24:06;;;;;;;15.82;15.23;;;;;;;-141.02;100.00;84433.66;5113692;28;20229;-74
2022/06/26 04:26:33;;;;;;;16.63;15.93;;;;;;;-141.02;100.00;84433.66;5113270;28;20675;-75
2022/06/26 04:29:00;;;;;;;16.48;15.73;;;;;;;-141.02;100.00;84363.69;5113275;28;20197;-75
2022/06/26 04:31:29;;;;;;;17.10;16.20;;;;;;;-141.02;100.00;84309.28;5113548;28;20197;-75
2022/06/26 04:33:56;;;;;;;17.67;16.77;;;;;;;-141.02;100.00;84262.66;5113363;28;20260;-74
2022/06/26 04:36:23;;;;;;;18.35;17.45;;;;;;;-141.02;100.00;84151.88;5114268;28;20278;-75
2022/06/26 04:38:50;;;;;;;17.85;16.95;;;;;;;-141.02;100.00;84091.66;5113373;28;20193;-75
2022/06/26 04:44:02;;;;;;;17.17;16.27;;;;;;;-141.02;100.00;84010.03;5113425;28;20639;-75
2022/06/26 04:46:30;;;;;;;17.73;16.83;;;;;;;-141.02;100.00;83932.31;5113270;28;20201;-76
2022/06/26 04:48:58;;;;;;;17.23;16.33;;;;;;;-141.02;100.00;83940.09;5113194;28;20193;-75
2022/06/26 04:51:25;;;;;;;16.40;15.60;;;;;;;-141.02;100.00;83947.84;5113191;28;20228;-75
2022/06/26 04:53:52;;;;;;;16.83;15.93;;;;;;;-141.02;100.00;83916.78;5113273;28;20316;-75
2022/06/26 04:56:19;;;;;;;17.45;16.45;;;;;;;-141.02;100.00;83862.38;5112974;28;20708;-76
2022/06/26 04:58:46;;;;;;;17.60;16.60;;;;;;;-141.02;100.00;83815.72;5113010;28;20643;-75
2022/06/26 05:01:14;;;;;;;18.00;17.00;;;;;;;-141.02;100.00;83842.94;5113052;28;20193;-75
2022/06/26 05:03:44;;;;;;;17.80;16.80;;;;;;;-141.02;100.00;83776.88;5113045;28;20224;-75
2022/06/26 05:06:11;;;;;;;18.30;17.30;;;;;;;-141.02;100.00;83772.97;5113232;28;20228;-75
2022/06/26 05:08:38;;;;;;;17.65;16.65;;;;;;;-141.02;100.00;83714.69;5112847;28;20730;-75
2022/06/26 05:11:06;;;;;;;17.65;16.65;;;;;;;-141.02;100.00;83734.13;5112894;28;20232;-74
2022/06/26 05:13:33;;;;;;;16.73;15.82;;;;;;;-141.02;100.00;83753.56;5113019;28;20281;-75
2022/06/26 05:16:00;;;;;;;17.08;16.17;;;;;;;-141.02;100.00;83765.22;5112870;28;20244;-75
2022/06/26 05:18:28;;;;;;;17.42;16.52;;;;;;;-141.02;100.00;83621.44;5112802;28;20235;-73
2022/06/26 05:20:57;;;;;;;17.33;16.42;;;;;;;-141.02;100.00;83854.59;5112818;28;20647;-75
2022/06/26 05:23:24;;;;;;;18.20;17.30;;;;;;;-141.02;100.00;83780.75;5111609;28;20200;-75
2022/06/26 05:25:51;;;;;;;18.45;17.55;;;;;;;-141.02;100.00;83753.56;5112432;28;20197;-75
2022/06/26 05:28:19;;;;;;;18.10;17.20;;;;;;;-141.02;100.00;83940.09;5112381;28;20228;-74
2022/06/26 05:30:46;;;;;;;18.40;17.58;;;;;;;-141.02;100.00;83753.56;5112760;28;20284;-75
2022/06/26 05:33:13;;;;;;;18.83;17.92;;;;;;;-141.02;100.00;83679.72;5112676;28;20276;-75
2022/06/26 05:35:40;;;;;;;19.17;18.27;;;;;;;-141.02;100.00;83732.19;5112244;28;20324;-73
2022/06/26 05:38:09;;;;;;;18.17;17.38;;;;;;;-141.02;100.00;83763.28;5112688;28;20246;-74
2022/06/26 05:40:36;;;;;;;17.98;17.17;;;;;;;-141.02;100.00;83741.91;5112579;28;20231;-75
2022/06/26 05:43:03;;;;;;;16.95;16.23;;;;;;;-141.02;100.00;83545.66;5112867;28;20288;-74
2022/06/26 05:45:30;;;;;;;16.88;16.17;;;;;;;-141.02;100.00;83858.47;5113578;28;20236;-74
2022/06/26 05:47:57;;;;;;;16.02;15.32;;;;;;;-141.02;100.00;83811.84;5112782;28;20280;-74
2022/06/26 05:50:24;;;;;;;16.25;15.55;;;;;;;-141.02;100.00;83718.59;5112551;28;20197;-74
2022/06/26 05:52:52;;;;;;;18.00;17.10;;;;;;;-141.02;100.00;83718.59;5112159;28;20632;-74
2022/06/26 05:55:20;;;;;;;17.40;16.60;;;;;;;-141.02;100.00;83765.22;5112140;28;20225;-73
2022/06/26 05:57:47;;;;;;;17.80;17.00;;;;;;;-141.02;100.00;83858.47;5112233;28;20317;-74
2022/06/26 06:00:15;;;;;;;18.17;17.35;;;;;;;-141.02;100.00;83804.06;5112149;28;20229;-74
2022/06/26 06:02:42;;;;;;;17.02;16.23;;;;;;;-141.02;100.00;83827.38;5112403;28;20250;-74
2022/06/26 06:05:09;;;;;;;17.40;16.60;;;;;;;-141.02;100.00;83809.91;5112077;28;20197;-75
2022/06/26 06:07:37;;;;;;;17.75;16.95;;;;;;;-141.02;100.00;83862.38;5112082;28;20659;-73
2022/06/26 06:10:05;;;;;;;18.20;17.40;;;;;;;-141.02;100.00;83897.34;5112010;28;20189;-74
2022/06/26 06:12:35;;;;;;;17.67;16.88;;;;;;;-141.02;100.00;83823.50;5112341;28;20226;-75
2022/06/26 06:15:02;;;;;;;17.13;16.33;;;;;;;-141.02;100.00;83827.38;5112216;28;20278;-76
2022/06/26 06:17:40;;;;;;;17.88;17.05;;;;;;;-141.02;100.00;83823.50;5112218;28;20663;-72
2022/06/26 06:20:11;;;;;;;17.00;16.20;;;;;;;-141.02;100.00;83866.25;5112231;28;20189;-76
2022/06/26 06:22:38;;;;;;;17.45;16.67;;;;;;;-141.02;100.00;83726.34;5111985;28;20647;-76
2022/06/26 06:25:06;;;;;;;17.15;16.35;;;;;;;-141.02;100.00;83788.53;5112207;28;20194;-75
2022/06/26 06:27:36;;;;;;;18.48;17.58;;;;;;;-141.02;100.00;83786.59;5112183;28;20719;-76
2022/06/26 06:30:05;;;;;;;18.08;17.27;;;;;;;-141.02;100.00;83734.13;5111881;28;20278;-75
2022/06/26 06:32:32;;;;;;;18.83;17.92;;;;;;;-141.02;100.00;83784.66;5112083;28;20193;-76
2022/06/26 06:34:59;;;;;;;18.40;17.50;;;;;;;-141.02;100.00;83710.81;5113428;28;20221;-76
2022/06/26 06:37:26;;;;;;;18.52;17.65;;;;;;;-141.02;100.00;83772.97;5115440;28;20283;-76
2022/06/26 06:39:54;;;;;;;18.40;17.50;;;;;;;-141.02;100.00;83782.69;5115738;28;20195;-76
2022/06/26 06:42:21;;;;;;;18.55;17.65;;;;;;;-141.02;100.00;83819.63;5115731;28;20338;-76
2022/06/26 06:44:49;;;;;;;18.15;17.35;;;;;;;-141.02;100.00;83862.38;5115613;28;20201;-76
2022/06/26 06:47:16;;;;;;;18.05;17.25;;;;;;;-141.02;100.00;83788.53;5115581;27;20193;-75
2022/06/26 06:49:43;;;;;;;18.73;17.83;;;;;;;-141.02;100.00;83769.09;5115211;28;20193;-77
2022/06/26 06:52:10;;;;;;;18.90;18.00;;;;;;;-141.02;100.00;83755.50;5115519;28;20193;-77
2022/06/26 06:54:37;;;;;;;18.73;17.83;;;;;;;-141.02;100.00;83806.00;5115414;28;20221;-77
2022/06/26 06:57:05;;;;;;;18.40;17.50;;;;;;;-141.02;100.00;83835.16;5115124;28;20229;-76
2022/06/26 06:59:32;;;;;;;18.67;17.77;;;;;;;-141.02;100.00;83745.78;5115028;28;20193;-75
2022/06/26 07:02:01;;;;;;;19.08;18.17;;;;;;;-141.02;100.00;83703.03;5115329;28;20205;-74
2022/06/26 07:04:28;;;;;;;19.60;18.60;;;;;;;-141.02;100.00;83675.84;5115199;28;20394;-72
2022/06/26 07:06:55;;;;;;;18.10;17.30;;;;;;;-141.02;100.00;83767.16;5115171;28;20192;-75
2022/06/26 07:09:22;;;;;;;18.48;17.58;;;;;;;-141.02;100.00;83767.16;5115434;28;20266;-73
2022/06/26 07:11:50;;;;;;;17.73;16.88;;;;;;;-141.02;100.00;83675.84;5115139;28;20242;-75
2022/06/26 07:14:17;;;;;;;18.02;17.13;;;;;;;-141.02;100.00;83662.25;5114654;28;20189;-75
2022/06/26 07:16:44;;;;;;;18.05;17.15;;;;;;;-141.02;100.00;83675.84;5115095;28;20197;-74
2022/06/26 07:19:12;;;;;;;18.15;16.98;;;;;;;-141.02;100.00;83753.56;5114663;28;20233;-78
2022/06/26 07:21:40;;;;;;;18.60;17.70;;;;;;;-141.02;100.00;83716.63;5115083;28;20193;-76
2022/06/26 07:24:07;;;;;;;17.98;17.17;;;;;;;-141.02;100.00;83695.28;5114627;28;20197;-74
2022/06/26 07:26:34;;;;;;;17.95;17.15;;;;;;;-141.02;100.00;83755.50;5115659;28;20225;-76
2022/06/26 07:29:01;;;;;;;18.23;17.33;;;;;;;-141.02;100.00;83734.13;5114962;28;20231;-75
2022/06/26 07:31:28;;;;;;;17.35;16.55;;;;;;;-141.02;100.00;83780.75;5114441;28;20655;-74
2022/06/26 07:34:13;;;;;;;17.63;16.83;;;;;;;-141.02;100.00;83687.50;5114444;28;20717;-75
2022/06/26 07:36:43;;;;;;;18.95;17.95;;;;;;;-141.02;100.00;83623.38;5115493;28;20276;-74
2022/06/26 07:39:11;;;;;;;19.15;18.17;;;;;;;-141.02;99.85;83557.31;5114551;28;20199;-74
2022/06/26 07:41:38;;;;;;;19.00;18.10;;;;;;;-141.02;99.11;83530.13;5114549;28;20250;-74
2022/06/26 07:44:06;;;;;;;19.17;18.20;;;;;;;-141.02;96.30;83516.53;5114494;28;20189;-75
2022/06/26 07:46:34;;;;;;;19.45;18.45;;;;;;;-141.02;89.81;83448.53;5113670;28;20366;-76
2022/06/26 07:49:02;;;;;;;19.77;18.77;;;;;;;-141.02;90.02;83436.88;5114144;28;20755;-74
2022/06/26 07:51:29;;;;;;;19.95;18.85;;;;;;;-141.02;84.55;83365.00;5114311;28;20200;-75
2022/06/26 07:53:57;;;;;;;20.30;19.20;;;;;;;-141.02;86.15;83380.53;5114003;28;20584;-75
2022/06/26 07:56:25;;;;;;;20.00;18.90;;;;;;;-141.02;89.30;83442.69;5113685;28;20755;-75
2022/06/26 07:58:52;;;;;;;19.50;18.50;;;;;;;-141.02;85.89;83376.66;5114003;28;20205;-75
2022/06/26 08:01:19;;;;;;;19.02;18.02;;;;;;;-141.02;83.00;83310.59;5113894;28;20655;-72
2022/06/26 08:03:47;;;;;;;19.80;18.70;;;;;;;-141.02;81.77;83345.56;5114125;28;20242;-74
2022/06/26 08:06:14;;;;;;;20.08;18.98;;;;;;;-141.02;79.03;83184.31;5113707;28;20193;-76
2022/06/26 08:08:41;;;;;;;21.90;20.70;;;;;;;-141.02;78.91;83277.56;5113748;28;20204;-76
2022/06/26 08:11:10;;;;;;;21.17;20.08;;;;;;;-141.02;82.69;83310.59;5114195;28;20253;-74
2022/06/26 08:13:37;;;;;;;20.73;19.63;;;;;;;-141.02;84.13;83322.25;5113910;28;20192;-75
2022/06/26 08:16:04;;;;;;;20.00;18.90;;;;;;;-141.02;81.33;83322.25;5113452;28;20316;-74
2022/06/26 08:18:31;;;;;;;20.50;19.40;;;;;;;-141.02;83.56;83318.38;5113540;28;20197;-75
2022/06/26 08:22:00;;;;;;;20.15;19.08;;;;;;;-141.02;84.20;83396.06;5114092;28;20227;-78
2022/06/26 08:23:45;;;;;;;19.45;18.45;;;;;;;-141.02;88.17;83384.41;5113272;28;20302;-74
2022/06/26 08:26:14;;;;;;;19.38;18.38;;;;;;;-141.02;83.95;83355.28;5113297;28;20735;-77
2022/06/26 08:28:41;;;;;;;19.88;18.77;;;;;;;-141.02;83.83;83365.00;5113351;28;20202;-77
2022/06/26 08:31:08;;;;;;;19.80;18.70;;;;;;;-141.02;80.40;83341.69;5113319;28;20271;-77
2022/06/26 08:33:35;;;;;;;19.08;18.08;;;;;;;-141.02;81.54;83283.41;5113224;28;20227;-77
2022/06/26 08:36:03;;;;;;;20.25;19.10;;;;;;;-141.02;78.71;83295.03;5113438;28;20312;-76
2022/06/26 08:38:31;;;;;;;19.17;18.10;;;;;;;-141.02;82.09;84017.81;5113122;28;20566;-75
2022/06/26 08:41:00;;;;;;;19.42;18.33;;;;;;;-141.02;80.08;83275.63;5113112;28;20197;-75
2022/06/26 08:43:29;;;;;;;18.77;17.77;;;;;;;-141.02;80.75;83248.44;5113312;28;20193;-75
2022/06/26 08:45:56;;;;;;;19.48;18.38;;;;;;;-141.02;78.71;83203.75;5113339;28;20254;-75
2022/06/26 08:48:27;;;;;;;19.50;18.50;;;;;;;-141.02;81.15;83273.69;5113529;28;20224;-77
2022/06/26 08:50:54;;;;;;;21.98;20.65;;;;;;;-141.02;76.52;83060.00;5113346;28;20188;-77
2022/06/26 08:53:21;;;;;;;20.05;18.95;;;;;;;-141.02;73.64;83028.91;5113216;28;20295;-80
2022/06/26 08:55:49;;;;;;;19.55;18.45;;;;;;;-141.02;73.64;82999.78;5112741;28;20691;-75
2022/06/26 08:58:16;;;;;;;20.20;19.00;;;;;;;-141.02;71.48;83194.03;5112846;28;20208;-77
2022/06/26 09:00:46;;;;;;;19.92;18.83;;;;;;;-141.02;75.96;83211.50;5112697;28;20575;-77
2022/06/26 09:03:15;;;;;;;19.90;18.80;;;;;;;-141.02;77.08;83205.69;5113048;28;20201;-78
2022/06/26 09:05:43;;;;;;;19.73;18.60;;;;;;;-141.02;73.65;83093.00;5112972;28;20655;-78
2022/06/26 09:08:18;;;;;;;19.23;18.13;;;;;;;-141.02;72.13;83161.00;5112963;28;20254;-77
2022/06/26 09:10:46;;;;;;;18.88;17.88;;;;;;;-141.02;79.03;83240.66;5112999;28;20189;-77
2022/06/26 09:13:14;;;;;;;19.35;18.25;;;;;;;-141.02;74.38;83116.31;5112838;28;20197;-79
2022/06/26 09:15:42;;;;;;;19.85;18.75;;;;;;;-141.02;75.21;83143.53;5112507;28;20263;-80
2022/06/26 09:18:12;;;;;;;19.48;18.38;;;;;;;-141.02;76.10;83112.44;5112538;28;20193;-77
2022/06/26 09:20:54;;;;;;;19.63;18.52;;;;;;;-141.02;72.36;83071.66;5112892;28;20185;-80
2022/06/26 09:23:22;;;;;;;19.15;18.05;;;;;;;-141.02;69.84;82980.34;5112499;28;20628;-78
2022/06/26 09:25:49;;;;;;;19.60;18.50;;;;;;;-141.02;65.48;82922.06;5112845;28;20193;-79
2022/06/26 09:28:17;;;;;;;19.52;18.42;;;;;;;-141.02;67.92;82999.78;5112386;28;20201;-79
2022/06/26 09:30:52;;;;;;;19.58;18.48;;;;;;;-141.02;67.87;82924.00;5112477;28;20250;-77
2022/06/26 09:33:21;;;;;;;19.05;17.98;;;;;;;-141.02;73.09;83061.94;5112694;28;20272;-79
2022/06/26 09:35:48;;;;;;;19.15;18.05;;;;;;;-141.02;69.69;82976.47;5112341;28;20658;-78
2022/06/26 09:38:20;;;;;;;20.35;19.15;;;;;;;-141.02;65.05;82859.91;5112690;28;20273;-81
2022/06/26 09:40:50;;;;;;;19.63;18.52;;;;;;;-141.02;63.75;82828.84;5112377;28;20716;-79
2022/06/26 09:43:28;;;;;;;19.63;18.42;;;;;;;-141.02;66.09;82937.63;5112614;28;20272;-79
2022/06/26 09:45:56;;;;;;;20.40;19.20;;;;;;;-141.02;65.15;82879.34;5112286;28;20228;-78
2022/06/26 09:48:25;;;;;;;18.80;17.70;;;;;;;-141.02;65.98;82935.66;5112599;28;20285;-79
2022/06/26 09:50:53;;;;;;;20.27;19.08;;;;;;;-141.02;66.59;82941.50;5112549;28;20196;-77
2022/06/26 09:53:22;;;;;;;18.65;17.55;;;;;;;-141.02;67.72;82939.56;5112550;28;20250;-79
2022/06/26 09:55:51;;;;;;;19.10;18.00;;;;;;;-141.02;63.74;82774.44;5111865;28;20277;-77
2022/06/26 09:58:19;;;;;;;18.45;17.45;;;;;;;-141.02;65.35;82789.97;5112535;28;20212;-80
2022/06/26 10:06:25;;;;;;;19.35;18.25;;;;;;;-141.02;61.71;82739.47;5112143;28;20200;-79
2022/06/26 10:06:27;;;;;;;19.98;18.88;;;;;;;-141.02;65.72;82706.47;5112531;28;20262;-76
2022/06/26 10:08:55;;;;;;;20.42;19.33;;;;;;;-141.02;69.26;82898.75;5112111;28;20197;-77
2022/06/26 10:11:24;;;;;;;19.73;18.63;;;;;;;-141.02;70.03;82904.59;5116162;28;20194;-78
2022/06/26 10:13:55;;;;;;;18.25;17.35;;;;;;;-141.02;69.56;82972.56;5116209;28;20740;-77
2022/06/26 10:16:38;;;;;;;18.10;17.10;;;;;;;-141.02;67.26;82809.41;5116213;28;20221;-83
2022/06/26 10:19:23;;;;;;;19.85;18.75;;;;;;;-141.02;63.80;82745.31;5116155;28;20211;-81
2022/06/26 10:21:51;;;;;;;19.35;18.35;;;;;;;-141.02;68.26;82722.00;5115883;28;20558;-76
2022/06/26 10:24:19;;;;;;;19.00;18.00;;;;;;;-141.02;65.48;82669.56;5115742;28;20193;-78
2022/06/26 10:26:54;;;;;;;18.60;17.70;;;;;;;-141.02;62.01;82599.63;5116053;28;20220;-77
2022/06/26 10:29:21;;;;;;;19.48;18.48;;;;;;;-141.02;62.39;82615.16;5115972;27;20258;-75
2022/06/26 10:31:49;;;;;;;19.05;18.05;;;;;;;-141.02;60.47;82650.13;5116242;28;20226;-80
2022/06/26 10:34:19;;;;;;;18.73;17.83;;;;;;;-141.02;60.54;82677.31;5115543;28;20677;-87
2022/06/26 10:37:02;;;;;;;19.30;18.30;;;;;;;-141.02;61.34;82743.38;5115455;28;20225;-80
2022/06/26 10:39:47;;;;;;;19.40;18.40;;;;;;;-141.02;63.67;82681.22;5115684;28;20678;-80
2022/06/26 10:45:09;;;;;;;19.20;18.20;;;;;;;-141.02;60.44;82533.59;5115857;28;20180;-80
2022/06/26 10:47:48;;;;;;;19.23;18.23;;;;;;;-141.02;60.82;82560.78;5115674;28;20186;-76
2022/06/26 10:50:45;;;;;;;19.63;18.63;;;;;;;-141.02;58.77;82413.19;5115401;28;20225;-77
2022/06/26 10:53:15;;;;;;;20.63;19.50;;;;;;;-141.02;58.09;82236.44;5091563;28;20193;-77
2022/06/26 10:55:43;;;;;;;20.85;19.65;;;;;;;-141.02;53.50;82323.84;5114961;27;20282;-77
2022/06/26 10:58:19;;;;;;;21.08;19.88;;;;;;;-141.02;55.60;82378.22;5115136;28;20285;-80
2022/06/26 11:00:46;;;;;;;20.40;19.30;;;;;;;-141.02;56.65;82430.66;5115109;28;20245;-84
2022/06/26 11:03:15;;;;;;;20.77;19.58;;;;;;;-141.02;58.39;82467.56;5115357;28;20607;-82
2022/06/26 11:05:56;;;;;;;20.63;19.48;;;;;;;-141.02;56.48;82498.63;5115359;28;20193;-79
2022/06/26 11:08:24;;;;;;;20.77;19.58;;;;;;;-141.02;57.83;82580.22;5114981;28;20715;-79
2022/06/26 11:10:51;;;;;;;20.30;19.20;;;;;;;-141.02;59.08;82564.69;5115210;28;20227;-81
2022/06/26 11:13:18;;;;;;;20.30;19.20;;;;;;;-141.02;57.00;82494.75;5114867;28;20702;-81